createdAt,value
2018-06-24T00:02:20.685Z,2.50
2018-06-24T00:04:47.932Z,2.90
2018-06-24T00:07:15.187Z,2.73
2018-06-24T00:09:42.419Z,3.00
2018-06-24T00:12:09.645Z,3.20
2018-06-24T00:14:36.911Z,2.90
2018-06-24T00:17:04.153Z,2.50
2018-06-24T00:19:31.475Z,3.60
2018-06-24T00:21:58.705Z,2.77
2018-06-24T00:24:25.953Z,2.63
2018-06-24T00:26:53.231Z,2.73
2018-06-24T00:29:20.509Z,2.93
2018-06-24T00:31:47.907Z,2.43
2018-06-24T00:34:15.125Z,2.90
2018-06-24T00:36:42.410Z,2.50
2018-06-24T00:39:10.113Z,3.07
2018-06-24T00:41:37.582Z,3.30
2018-06-24T00:44:04.829Z,3.10
2018-06-24T00:46:32.210Z,3.50
2018-06-24T00:48:59.480Z,3.07
2018-06-24T00:51:27.803Z,2.40
2018-06-24T00:53:55.069Z,2.80
2018-06-24T00:56:22.336Z,2.80
2018-06-24T00:58:49.564Z,3.40
2018-06-24T01:01:16.834Z,2.70
2018-06-24T01:03:44.105Z,2.80
2018-06-24T01:06:11.353Z,3.00
2018-06-24T01:08:38.574Z,3.33
2018-06-24T01:11:05.854Z,3.20
2018-06-24T01:13:33.197Z,3.10
2018-06-24T01:16:00.436Z,2.57
2018-06-24T01:18:27.669Z,2.77
2018-06-24T01:20:55.481Z,3.10
2018-06-24T01:23:22.737Z,2.73
2018-06-24T01:25:50.182Z,3.43
2018-06-24T01:28:17.419Z,2.87
2018-06-24T01:30:44.636Z,2.90
2018-06-24T01:33:11.890Z,3.53
2018-06-24T01:35:39.170Z,3.37
2018-06-24T01:38:06.423Z,2.83
2018-06-24T01:40:33.982Z,3.20
2018-06-24T01:43:01.289Z,3.50
2018-06-24T01:45:28.537Z,3.27
2018-06-24T01:47:55.896Z,3.20
2018-06-24T01:50:23.146Z,3.10
2018-06-24T01:52:50.404Z,3.07
2018-06-24T01:55:17.641Z,3.37
2018-06-24T01:57:44.863Z,3.97
2018-06-24T02:00:12.177Z,2.73
2018-06-24T02:02:39.412Z,3.10
2018-06-24T02:05:06.670Z,3.37
2018-06-24T02:07:33.910Z,3.03
2018-06-24T02:10:01.157Z,3.03
2018-06-24T02:12:28.387Z,3.10
2018-06-24T02:14:55.702Z,2.90
2018-06-24T02:17:22.929Z,2.90
2018-06-24T02:19:50.157Z,3.20
2018-06-24T02:22:17.490Z,3.70
2018-06-24T02:24:44.734Z,4.47
2018-06-24T02:27:12.046Z,3.40
2018-06-24T02:29:39.289Z,2.83
2018-06-24T02:32:06.758Z,3.33
2018-06-24T02:34:33.986Z,3.20
2018-06-24T02:37:01.218Z,2.97
2018-06-24T02:39:28.451Z,3.80
2018-06-24T02:41:55.677Z,3.30
2018-06-24T02:44:22.937Z,3.20
2018-06-24T02:46:50.181Z,3.10
2018-06-24T02:49:17.448Z,3.23
2018-06-24T02:51:44.681Z,3.10
2018-06-24T02:54:12.093Z,2.80
2018-06-24T02:56:39.349Z,3.07
2018-06-24T02:59:06.616Z,3.57
2018-06-24T03:01:33.857Z,3.57
2018-06-24T03:04:01.104Z,3.07
2018-06-24T03:06:28.430Z,3.10
2018-06-24T03:08:55.670Z,3.27
2018-06-24T03:11:22.929Z,3.33
2018-06-24T03:13:50.181Z,4.03
2018-06-24T03:16:17.453Z,3.03
2018-06-24T03:18:44.811Z,3.77
2018-06-24T03:21:12.090Z,2.90
2018-06-24T03:23:39.316Z,3.33
2018-06-24T03:26:06.540Z,3.70
2018-06-24T03:28:33.803Z,3.33
2018-06-24T03:31:01.060Z,3.23
2018-06-24T03:33:28.387Z,3.10
2018-06-24T03:35:55.622Z,3.33
2018-06-24T03:38:22.940Z,2.63
2018-06-24T03:40:50.206Z,3.27
2018-06-24T03:43:17.453Z,3.87
2018-06-24T03:45:44.726Z,2.80
2018-06-24T03:48:12.065Z,3.13
2018-06-24T03:50:39.334Z,2.97
2018-06-24T03:53:06.562Z,3.10
2018-06-24T03:55:33.805Z,3.80
2018-06-24T03:58:01.079Z,3.40
2018-06-24T04:00:28.560Z,3.03
2018-06-24T04:02:55.828Z,3.30
2018-06-24T04:05:23.103Z,3.20
2018-06-24T04:07:50.329Z,3.10
2018-06-24T04:10:17.588Z,5.70
2018-06-24T04:12:44.825Z,3.33
2018-06-24T04:15:12.088Z,2.93
2018-06-24T04:17:39.327Z,3.50
2018-06-24T04:20:06.582Z,3.00
2018-06-24T04:22:33.861Z,3.50
2018-06-24T04:25:01.109Z,3.03
2018-06-24T04:27:28.356Z,3.00
2018-06-24T04:29:55.677Z,3.40
2018-06-24T04:32:22.920Z,3.40
2018-06-24T04:34:50.191Z,3.47
2018-06-24T04:37:17.444Z,3.50
2018-06-24T04:39:44.685Z,4.00
2018-06-24T04:42:11.945Z,3.40
2018-06-24T04:44:39.205Z,3.33
2018-06-24T04:47:06.473Z,3.40
2018-06-24T04:49:33.743Z,3.97
2018-06-24T04:52:01.008Z,3.23
2018-06-24T04:54:28.268Z,3.50
2018-06-24T04:59:29.418Z,3.10
2018-06-24T05:01:56.835Z,3.37
2018-06-24T05:04:24.138Z,2.90
2018-06-24T05:06:51.401Z,2.90
2018-06-24T05:09:19.259Z,3.63
2018-06-24T05:11:46.506Z,3.67
2018-06-24T05:14:14.077Z,3.17
2018-06-24T05:16:41.333Z,3.07
2018-06-24T05:19:08.819Z,3.30
2018-06-24T05:21:36.073Z,3.13
2018-06-24T05:24:03.313Z,2.90
2018-06-24T05:26:30.631Z,2.67
2018-06-24T05:28:57.917Z,3.27
2018-06-24T05:31:25.255Z,2.90
2018-06-24T05:33:52.510Z,3.93
2018-06-24T05:36:21.148Z,3.20
2018-06-24T05:41:22.543Z,2.90
2018-06-24T05:43:49.818Z,2.77
2018-06-24T05:46:17.067Z,3.17
2018-06-24T05:48:44.483Z,3.60
2018-06-24T05:51:11.873Z,3.23
2018-06-24T05:53:39.129Z,3.30
2018-06-24T05:56:06.405Z,3.00
2018-06-24T05:58:33.984Z,2.90
2018-06-24T06:01:01.233Z,2.67
2018-06-24T06:03:28.489Z,2.83
2018-06-24T06:05:55.726Z,2.80
2018-06-24T06:08:23.537Z,3.03
2018-06-24T06:10:50.865Z,2.63
2018-06-24T06:13:18.349Z,3.40
2018-06-24T06:15:45.644Z,3.20
2018-06-24T06:18:12.930Z,3.17
2018-06-24T06:20:40.181Z,2.77
2018-06-24T06:23:07.461Z,3.17
2018-06-24T06:25:34.734Z,2.57
2018-06-24T06:28:02.021Z,2.93
2018-06-24T06:30:29.301Z,2.70
2018-06-24T06:32:56.582Z,2.40
2018-06-24T06:35:23.834Z,3.40
2018-06-24T06:37:51.079Z,3.37
2018-06-24T06:40:18.415Z,2.50
2018-06-24T06:42:45.687Z,3.00
2018-06-24T06:45:13.035Z,3.33
2018-06-24T06:47:40.472Z,3.17
2018-06-24T06:50:07.744Z,3.23
2018-06-24T06:52:35.004Z,3.30
2018-06-24T06:55:02.285Z,3.20
2018-06-24T06:57:29.578Z,3.10
2018-06-24T06:59:56.855Z,3.20
2018-06-24T07:02:24.116Z,3.20
2018-06-24T07:04:51.478Z,3.30
2018-06-24T07:07:18.766Z,2.90
2018-06-24T07:09:46.081Z,3.10
2018-06-24T07:12:13.369Z,2.97
2018-06-24T07:14:41.174Z,3.60
2018-06-24T07:17:08.464Z,3.87
2018-06-24T07:19:35.726Z,3.07
2018-06-24T07:22:03.092Z,3.07
2018-06-24T07:24:30.542Z,3.37
2018-06-24T07:26:57.819Z,2.97
2018-06-24T07:29:25.078Z,2.93
2018-06-24T07:31:52.486Z,2.77
2018-06-24T07:34:19.741Z,2.80
2018-06-24T07:36:47.028Z,3.10
2018-06-24T07:39:14.301Z,3.30
2018-06-24T07:41:41.725Z,3.40
2018-06-24T07:44:09.043Z,2.90
2018-06-24T07:46:36.428Z,2.67
2018-06-24T07:49:03.685Z,3.73
2018-06-24T07:51:30.967Z,3.20
2018-06-24T07:53:58.244Z,3.17
2018-06-24T07:56:26.136Z,2.77
2018-06-24T07:58:53.382Z,2.87
2018-06-24T08:01:20.606Z,2.70
2018-06-24T08:06:30.554Z,3.07
2018-06-24T08:08:57.827Z,3.30
2018-06-24T08:11:25.083Z,3.33
2018-06-24T08:13:52.370Z,3.23
2018-06-24T08:16:19.673Z,2.67
2018-06-24T08:18:46.968Z,2.90
2018-06-24T08:21:14.258Z,2.93
2018-06-24T08:23:41.498Z,3.30
2018-06-24T08:26:08.777Z,2.70
2018-06-24T08:28:36.078Z,2.80
2018-06-24T08:31:03.627Z,3.40
2018-06-24T08:33:30.939Z,3.70
2018-06-24T08:35:58.200Z,3.27
2018-06-24T08:38:25.495Z,3.47
2018-06-24T08:40:53.750Z,4.30
2018-06-24T08:43:21.013Z,3.10
2018-06-24T08:45:48.262Z,3.07
2018-06-24T08:48:15.521Z,4.07
2018-06-24T08:50:42.805Z,3.70
2018-06-24T08:53:10.115Z,3.70
2018-06-24T08:55:37.358Z,3.43
2018-06-24T08:58:04.919Z,4.00
2018-06-24T09:00:32.192Z,3.43
2018-06-24T09:02:59.637Z,3.33
2018-06-24T09:05:26.990Z,3.27
2018-06-24T09:07:54.327Z,3.97
2018-06-24T09:10:21.620Z,3.23
2018-06-24T09:12:48.902Z,2.90
2018-06-24T09:15:16.192Z,4.43
2018-06-24T09:17:43.466Z,3.10
2018-06-24T09:20:10.802Z,3.40
2018-06-24T09:22:38.083Z,3.63
2018-06-24T09:25:06.159Z,3.00
2018-06-24T09:27:33.397Z,3.20
2018-06-24T09:30:00.698Z,2.87
2018-06-24T09:32:28.363Z,2.93
2018-06-24T09:34:55.621Z,3.40
2018-06-24T09:37:23.964Z,3.40
2018-06-24T09:39:51.298Z,2.60
2018-06-24T09:42:18.609Z,3.83
2018-06-24T09:44:45.903Z,3.30
2018-06-24T09:47:13.323Z,2.67
2018-06-24T09:49:40.630Z,2.50
2018-06-24T09:52:07.903Z,3.27
2018-06-24T09:54:35.963Z,2.83
2018-06-24T09:57:03.546Z,2.90
2018-06-24T09:59:30.802Z,3.17
2018-06-24T10:01:58.102Z,3.13
2018-06-24T10:04:25.387Z,3.80
2018-06-24T10:06:52.626Z,4.13
2018-06-24T10:09:19.900Z,2.50
2018-06-24T10:11:47.134Z,3.30
2018-06-24T10:14:14.514Z,3.30
2018-06-24T10:16:41.768Z,2.80
2018-06-24T10:19:09.024Z,3.30
2018-06-24T10:21:36.337Z,3.23
2018-06-24T10:24:03.635Z,3.20
2018-06-24T10:26:30.906Z,3.27
2018-06-24T10:28:58.194Z,2.90
2018-06-24T10:31:25.884Z,3.00
2018-06-24T10:33:53.153Z,2.87
2018-06-24T10:36:20.414Z,3.53
2018-06-24T10:38:47.733Z,4.00
2018-06-24T10:41:15.050Z,3.63
2018-06-24T10:43:42.501Z,3.17
2018-06-24T10:46:09.842Z,3.27
2018-06-24T10:48:37.102Z,2.80
2018-06-24T10:51:05.288Z,3.33
2018-06-24T10:53:32.570Z,2.90
2018-06-24T10:55:59.956Z,3.70
2018-06-24T10:58:27.227Z,3.63
2018-06-24T11:00:54.473Z,2.70
2018-06-24T11:03:22.354Z,3.40
2018-06-24T11:05:49.624Z,3.20
2018-06-24T11:08:16.942Z,2.70
2018-06-24T11:10:44.236Z,3.30
2018-06-24T11:13:11.518Z,2.80
2018-06-24T11:15:38.834Z,2.73
2018-06-24T11:18:06.103Z,2.57
2018-06-24T11:20:33.366Z,2.60
2018-06-24T11:23:00.642Z,7.30
2018-06-24T11:25:27.955Z,4.43
2018-06-24T11:27:55.188Z,2.73
2018-06-24T11:30:22.473Z,3.30
2018-06-24T11:32:49.745Z,2.53
2018-06-24T11:35:17.054Z,2.90
2018-06-24T11:37:44.359Z,3.53
2018-06-24T11:40:11.621Z,2.83
2018-06-24T11:42:38.935Z,2.90
2018-06-24T11:45:06.234Z,3.13
2018-06-24T11:47:33.540Z,3.40
2018-06-24T11:50:00.819Z,2.93
2018-06-24T11:52:28.085Z,2.80
2018-06-24T11:54:55.416Z,2.67
2018-06-24T11:57:22.704Z,2.37
2018-06-24T11:59:49.945Z,2.87
2018-06-24T12:02:17.217Z,4.17
2018-06-24T12:04:44.492Z,2.80
2018-06-24T12:07:11.781Z,2.53
2018-06-24T12:09:39.070Z,2.70
2018-06-24T12:12:06.501Z,2.10
2018-06-24T12:14:33.783Z,2.90
2018-06-24T12:17:01.647Z,2.60
2018-06-24T12:19:28.902Z,2.40
2018-06-24T12:21:56.194Z,4.90
2018-06-24T12:24:23.479Z,2.50
2018-06-24T12:26:50.810Z,3.00
2018-06-24T12:29:18.106Z,2.23
2018-06-24T12:31:45.434Z,2.50
2018-06-24T12:34:12.766Z,2.90
2018-06-24T12:36:41.404Z,2.27
2018-06-24T12:39:16.225Z,2.37
2018-06-24T12:41:43.485Z,2.77
2018-06-24T12:44:11.201Z,2.57
2018-06-24T12:46:39.131Z,2.03
2018-06-24T12:49:06.910Z,2.63
2018-06-24T12:51:34.429Z,2.10
2018-06-24T12:54:01.804Z,3.97
2018-06-24T12:56:29.364Z,1.87
2018-06-24T12:58:56.858Z,2.13
2018-06-24T13:01:24.361Z,2.40
2018-06-24T13:03:51.734Z,2.40
2018-06-24T13:06:19.215Z,1.80
2018-06-24T13:08:46.541Z,2.03
2018-06-24T13:11:13.934Z,1.97
2018-06-24T13:13:42.063Z,1.70
2018-06-24T13:16:09.306Z,2.10
2018-06-24T13:18:36.641Z,1.70
2018-06-24T13:21:03.994Z,2.13
2018-06-24T13:23:31.639Z,1.80
2018-06-24T13:25:58.949Z,2.30
2018-06-24T13:28:26.226Z,3.10
2018-06-24T13:30:53.553Z,1.70
2018-06-24T13:33:20.920Z,2.17
2018-06-24T13:35:48.359Z,2.07
2018-06-24T13:38:16.208Z,2.27
2018-06-24T13:40:43.518Z,2.43
2018-06-24T13:43:10.830Z,2.53
2018-06-24T13:45:38.114Z,2.37
2018-06-24T13:48:05.602Z,1.87
2018-06-24T13:50:32.939Z,2.83
2018-06-24T13:53:00.311Z,2.23
2018-06-24T13:55:27.645Z,2.13
2018-06-24T13:57:54.930Z,2.70
2018-06-24T14:00:22.459Z,2.47
2018-06-24T14:02:49.741Z,2.40
2018-06-24T14:05:17.168Z,1.97
2018-06-24T14:07:44.655Z,2.50
2018-06-24T14:10:11.890Z,2.23
2018-06-24T14:12:39.172Z,2.60
2018-06-24T14:15:06.605Z,2.37
2018-06-24T14:17:33.937Z,2.43
2018-06-24T14:20:01.230Z,2.40
2018-06-24T14:22:28.477Z,3.00
2018-06-24T14:24:55.765Z,2.30
2018-06-24T14:27:23.044Z,2.50
2018-06-24T14:29:50.665Z,2.57
2018-06-24T14:32:17.955Z,2.10
2018-06-24T14:34:45.245Z,2.50
2018-06-24T14:37:12.584Z,2.50
2018-06-24T14:39:40.777Z,1.97
2018-06-24T14:42:08.066Z,1.80
2018-06-24T14:44:35.334Z,1.97
2018-06-24T14:47:02.705Z,2.40
2018-06-24T14:49:30.022Z,2.30
2018-06-24T14:51:57.285Z,2.73
2018-06-24T14:54:24.884Z,1.73
2018-06-24T14:56:52.146Z,1.70
2018-06-24T14:59:19.499Z,2.00
2018-06-24T15:01:47.157Z,2.20
2018-06-24T15:04:14.503Z,2.00
2018-06-24T15:06:41.868Z,2.20
2018-06-24T15:09:10.797Z,2.33
2018-06-24T15:11:38.185Z,1.63
2018-06-24T15:14:05.426Z,2.03
2018-06-24T15:16:32.760Z,2.10
2018-06-24T15:19:00.038Z,1.97
2018-06-24T15:21:27.762Z,2.20
2018-06-24T15:23:54.999Z,2.20
2018-06-24T15:26:22.316Z,2.00
2018-06-24T15:28:49.608Z,2.00
2018-06-24T15:31:16.929Z,2.00
2018-06-24T15:33:44.224Z,2.23
2018-06-24T15:36:11.542Z,2.37
2018-06-24T15:38:38.831Z,2.30
2018-06-24T15:41:06.081Z,2.07
2018-06-24T15:43:33.325Z,1.60
2018-06-24T15:46:00.601Z,2.63
2018-06-24T15:48:27.902Z,1.80
2018-06-24T15:50:55.379Z,2.20
2018-06-24T15:53:22.644Z,1.90
2018-06-24T15:55:49.902Z,2.07
2018-06-24T15:58:17.173Z,2.30
2018-06-24T16:00:44.827Z,1.90
2018-06-24T16:03:12.132Z,2.30
2018-06-24T16:05:39.374Z,2.40
2018-06-24T16:08:06.678Z,2.10
2018-06-24T16:10:33.993Z,2.90
2018-06-24T16:13:01.270Z,2.20
2018-06-24T16:15:28.547Z,1.80
2018-06-24T16:17:55.819Z,1.90
2018-06-24T16:20:23.225Z,1.97
2018-06-24T16:22:50.714Z,2.40
2018-06-24T16:25:18.098Z,1.90
2018-06-24T16:27:45.456Z,2.10
2018-06-24T16:30:12.763Z,2.03
2018-06-24T16:32:40.105Z,2.30
2018-06-24T16:35:08.400Z,1.47
2018-06-24T16:37:35.908Z,2.27
2018-06-24T16:40:03.199Z,1.90
2018-06-24T16:42:30.563Z,2.10
2018-06-24T16:44:57.841Z,1.93
2018-06-24T16:47:25.084Z,1.70
2018-06-24T16:49:52.340Z,1.87
2018-06-24T16:52:20.478Z,2.40
2018-06-24T16:54:47.733Z,1.67
2018-06-24T16:57:15.040Z,1.90
2018-06-24T16:59:42.318Z,2.30
2018-06-24T17:02:09.630Z,2.17
2018-06-24T17:04:36.898Z,2.07
2018-06-24T17:07:04.421Z,2.03
2018-06-24T17:09:31.702Z,2.20
2018-06-24T17:11:58.995Z,2.00
2018-06-24T17:14:26.379Z,2.10
2018-06-24T17:16:53.660Z,1.50
2018-06-24T17:19:20.934Z,2.40
2018-06-24T17:21:48.794Z,2.20
2018-06-24T17:24:16.146Z,1.53
2018-06-24T17:26:43.444Z,2.00
2018-06-24T17:29:10.763Z,1.93
2018-06-24T17:31:38.130Z,2.07
2018-06-24T17:34:05.382Z,1.73
2018-06-24T17:36:32.723Z,2.10
2018-06-24T17:39:00.215Z,2.10
2018-06-24T17:41:27.550Z,2.50
2018-06-24T17:43:54.841Z,1.90
2018-06-24T17:46:22.107Z,2.07
2018-06-24T17:48:49.518Z,2.03
2018-06-24T17:51:16.816Z,1.77
2018-06-24T17:53:44.102Z,1.90
2018-06-24T17:56:11.384Z,1.60
2018-06-24T17:58:38.671Z,1.83
2018-06-24T18:01:06.329Z,1.93
2018-06-24T18:03:33.633Z,1.80
2018-06-24T18:06:00.899Z,1.80
2018-06-24T18:08:28.169Z,1.70
2018-06-24T18:10:55.450Z,1.70
2018-06-24T18:13:22.691Z,1.77
2018-06-24T18:15:50.022Z,1.90
2018-06-24T18:18:17.349Z,1.67
2018-06-24T18:20:45.214Z,2.00
2018-06-24T18:23:12.471Z,1.40
2018-06-24T18:25:39.971Z,1.80
2018-06-24T18:28:07.384Z,1.70
2018-06-24T18:30:34.880Z,1.73
2018-06-24T18:33:02.775Z,1.70
2018-06-24T18:35:30.312Z,1.93
2018-06-24T18:37:57.630Z,2.10
2018-06-24T18:40:25.077Z,2.30
2018-06-24T18:42:54.214Z,1.80
2018-06-24T18:45:21.685Z,2.20
2018-06-24T18:47:49.155Z,1.70
2018-06-24T18:50:17.193Z,1.70
2018-06-24T18:52:44.720Z,1.50
2018-06-24T18:55:12.084Z,1.63
2018-06-24T18:57:39.409Z,1.50
2018-06-24T19:00:07.052Z,2.33
2018-06-24T19:02:34.645Z,1.60
2018-06-24T19:05:02.122Z,1.70
2018-06-24T19:07:29.591Z,1.67
2018-06-24T19:09:57.037Z,1.87
2018-06-24T19:12:24.479Z,1.40
2018-06-24T19:14:51.952Z,2.00
2018-06-24T19:17:19.465Z,2.43
2018-06-24T19:19:46.938Z,1.70
2018-06-24T19:22:14.426Z,1.60
2018-06-24T19:24:42.901Z,1.50
2018-06-24T19:27:11.335Z,2.00
2018-06-24T19:29:39.227Z,1.60
2018-06-24T19:32:07.045Z,2.03
2018-06-24T19:34:34.718Z,1.77
2018-06-24T19:37:02.140Z,1.67
2018-06-24T19:39:29.615Z,1.33
2018-06-24T19:41:57.115Z,2.30
2018-06-24T19:44:24.457Z,4.90
2018-06-24T19:46:51.819Z,1.90
2018-06-24T19:49:19.135Z,2.03
2018-06-24T19:51:47.384Z,2.13
2018-06-24T19:54:14.667Z,1.70
2018-06-24T19:56:41.995Z,1.80
2018-06-24T19:59:09.437Z,2.10
2018-06-24T20:01:36.746Z,2.27
2018-06-24T20:04:05.280Z,2.27
2018-06-24T20:06:32.577Z,1.83
2018-06-24T20:08:59.951Z,1.60
2018-06-24T20:11:27.280Z,1.87
2018-06-24T20:13:54.615Z,2.20
2018-06-24T20:16:21.901Z,1.77
2018-06-24T20:18:49.336Z,2.00
2018-06-24T20:21:16.589Z,2.10
2018-06-24T20:23:43.876Z,1.80
2018-06-24T20:26:11.169Z,2.10
2018-06-24T20:28:38.952Z,1.90
2018-06-24T20:31:06.318Z,1.70
2018-06-24T20:33:33.575Z,2.20
2018-06-24T20:36:00.838Z,2.03
2018-06-24T20:38:28.197Z,1.73
2018-06-24T20:40:55.468Z,2.17
2018-06-24T20:43:22.725Z,2.37
2018-06-24T20:45:50.167Z,2.47
2018-06-24T20:48:17.627Z,2.87
2018-06-24T20:50:45.002Z,2.33
2018-06-24T20:53:12.438Z,2.30
2018-06-24T20:55:39.722Z,2.03
2018-06-24T20:58:07.028Z,2.30
2018-06-24T21:00:34.368Z,1.90
2018-06-24T21:03:01.624Z,1.90
2018-06-24T21:05:28.901Z,2.10
2018-06-24T21:07:56.203Z,1.70
2018-06-24T21:10:23.477Z,1.83
2018-06-24T21:12:50.805Z,1.97
2018-06-24T21:15:18.255Z,2.13
2018-06-24T21:17:45.588Z,1.90
2018-06-24T21:20:12.846Z,1.70
2018-06-24T21:22:40.127Z,2.30
2018-06-24T21:25:07.390Z,2.40
2018-06-24T21:27:34.670Z,2.30
2018-06-24T21:30:01.968Z,2.00
2018-06-24T21:32:29.207Z,2.17
2018-06-24T21:34:56.506Z,1.90
2018-06-24T21:37:23.815Z,2.10
2018-06-24T21:39:51.078Z,1.90
2018-06-24T21:42:18.464Z,2.63
2018-06-24T21:44:45.786Z,2.77
2018-06-24T21:47:13.122Z,1.83
2018-06-24T21:49:40.361Z,2.30
2018-06-24T21:52:07.654Z,1.93
2018-06-24T21:54:34.909Z,2.20
2018-06-24T21:57:02.173Z,2.00
2018-06-24T21:59:29.428Z,2.30
2018-06-24T22:01:56.830Z,2.10
2018-06-24T22:04:24.156Z,1.83
2018-06-24T22:06:51.441Z,1.93
2018-06-24T22:09:18.731Z,2.37
2018-06-24T22:11:46.119Z,1.93
2018-06-24T22:14:13.425Z,2.07
2018-06-24T22:16:40.694Z,2.10
2018-06-24T22:19:08.356Z,1.77
2018-06-24T22:21:35.754Z,2.43
2018-06-24T22:24:02.993Z,2.17
2018-06-24T22:26:30.257Z,2.10
2018-06-24T22:28:57.518Z,2.10
2018-06-24T22:31:24.771Z,1.80
2018-06-24T22:33:52.050Z,2.40
2018-06-24T22:36:19.317Z,1.87
2018-06-24T22:38:47.457Z,2.50
2018-06-24T22:41:14.716Z,2.77
2018-06-24T22:43:42.062Z,2.43
2018-06-24T22:46:09.521Z,2.80
2018-06-24T22:48:36.787Z,2.50
2018-06-24T22:51:04.014Z,2.47
2018-06-24T22:53:31.345Z,2.53
2018-06-24T22:55:58.625Z,2.70
2018-06-24T22:58:25.958Z,2.70
2018-06-24T23:00:53.299Z,3.03
2018-06-24T23:03:21.022Z,3.10
2018-06-24T23:05:48.325Z,2.73
2018-06-24T23:08:15.649Z,2.73
2018-06-24T23:10:43.324Z,2.50
2018-06-24T23:13:10.709Z,2.80
2018-06-24T23:15:37.944Z,2.60
2018-06-24T23:18:05.204Z,3.20
2018-06-24T23:20:32.450Z,2.67
2018-06-24T23:22:59.693Z,2.50
2018-06-24T23:25:26.923Z,3.00
2018-06-24T23:27:54.181Z,2.70
2018-06-24T23:30:21.405Z,2.97
2018-06-24T23:32:48.672Z,3.23
2018-06-24T23:35:15.900Z,3.17
2018-06-24T23:37:43.157Z,3.67
2018-06-24T23:40:10.494Z,3.20
2018-06-24T23:42:38.599Z,3.37
2018-06-24T23:45:05.833Z,3.60
2018-06-24T23:47:33.062Z,3.60
2018-06-24T23:50:00.340Z,4.00
2018-06-24T23:52:27.593Z,3.67
2018-06-24T23:54:54.830Z,4.10
2018-06-24T23:57:22.074Z,3.30
2018-06-24T23:59:49.330Z,4.30
